createdAt,value
2023-05-10T00:00:33.543Z,247.36
2023-05-10T00:01:33.593Z,248.80
2023-05-10T00:02:33.654Z,249.14
2023-05-10T00:03:33.644Z,248.51
2023-05-10T00:04:33.639Z,248.11
2023-05-10T00:05:33.681Z,246.84
2023-05-10T00:06:33.711Z,247.47
2023-05-10T00:07:33.785Z,247.17
2023-05-10T00:08:33.831Z,247.89
2023-05-10T00:09:33.797Z,247.45
2023-05-10T00:10:33.832Z,248.57
2023-05-10T00:11:33.890Z,248.42
2023-05-10T00:12:33.925Z,248.18
2023-05-10T00:13:33.922Z,247.34
2023-05-10T00:14:33.935Z,247.51
2023-05-10T00:15:33.993Z,247.69
2023-05-10T00:16:34.058Z,248.40
2023-05-10T00:17:34.076Z,248.24
2023-05-10T00:18:34.082Z,247.96
2023-05-10T00:19:34.132Z,250.00
2023-05-10T00:20:34.106Z,245.92
2023-05-10T00:21:34.174Z,247.16
2023-05-10T00:22:34.232Z,246.67
2023-05-10T00:23:34.227Z,246.74
2023-05-10T00:24:34.274Z,246.70
2023-05-10T00:25:34.321Z,247.62
2023-05-10T00:26:34.353Z,247.91
2023-05-10T00:27:34.371Z,248.19
2023-05-10T00:28:34.415Z,248.04
2023-05-10T00:29:34.462Z,247.09
2023-05-10T00:30:34.461Z,246.66
2023-05-10T00:31:34.527Z,248.85
2023-05-10T00:32:34.563Z,248.55
2023-05-10T00:33:34.590Z,248.02
2023-05-10T00:34:34.625Z,248.22
2023-05-10T00:35:34.629Z,249.37
2023-05-10T00:36:34.701Z,245.93
2023-05-10T00:37:34.702Z,247.82
2023-05-10T00:38:34.706Z,247.79
2023-05-10T00:39:34.801Z,249.20
2023-05-10T00:40:34.816Z,248.92
2023-05-10T00:41:34.845Z,248.33
2023-05-10T00:42:34.838Z,246.96
2023-05-10T00:43:34.890Z,247.99
2023-05-10T00:44:34.889Z,248.24
2023-05-10T00:45:34.972Z,247.74
2023-05-10T00:46:35.083Z,246.85
2023-05-10T00:47:35.061Z,247.44
2023-05-10T00:48:35.065Z,246.78
2023-05-10T00:49:35.097Z,246.08
2023-05-10T00:50:35.108Z,247.40
2023-05-10T00:51:35.140Z,247.62
2023-05-10T00:52:35.195Z,249.06
2023-05-10T00:53:35.232Z,248.53
2023-05-10T00:54:35.235Z,247.74
2023-05-10T00:55:35.277Z,246.94
2023-05-10T00:56:35.302Z,247.88
2023-05-10T00:57:35.369Z,246.44
2023-05-10T00:58:35.383Z,247.33
2023-05-10T00:59:35.399Z,246.06
2023-05-10T01:00:35.427Z,245.79
2023-05-10T01:01:35.521Z,246.75
2023-05-10T01:02:35.650Z,246.30
2023-05-10T01:03:35.578Z,248.80
2023-05-10T01:04:35.608Z,248.04
2023-05-10T01:05:35.593Z,247.10
2023-05-10T01:06:35.625Z,247.59
2023-05-10T01:07:35.681Z,246.46
2023-05-10T01:08:35.714Z,248.40
2023-05-10T01:09:35.723Z,247.31
2023-05-10T01:10:35.794Z,246.41
2023-05-10T01:11:35.818Z,247.47
2023-05-10T01:12:35.906Z,246.24
2023-05-10T01:13:35.914Z,247.80
2023-05-10T01:14:35.920Z,245.48
2023-05-10T01:15:36.032Z,245.94
2023-05-10T01:16:36.043Z,247.27
2023-05-10T01:17:36.038Z,247.53
2023-05-10T01:18:36.061Z,245.62
2023-05-10T01:19:36.155Z,245.99
2023-05-10T01:20:36.124Z,247.31
2023-05-10T01:21:36.229Z,247.77
2023-05-10T01:22:36.221Z,246.18
2023-05-10T01:23:36.249Z,246.87
2023-05-10T01:24:36.282Z,247.80
2023-05-10T01:25:36.294Z,245.01
2023-05-10T01:26:36.389Z,245.69
2023-05-10T01:27:36.359Z,245.58
2023-05-10T01:28:36.437Z,245.59
2023-05-10T01:29:36.477Z,243.98
2023-05-10T01:30:36.502Z,246.73
2023-05-10T01:31:36.594Z,246.99
2023-05-10T01:32:36.632Z,245.18
2023-05-10T01:33:36.608Z,246.59
2023-05-10T01:34:36.652Z,246.12
2023-05-10T01:35:36.681Z,246.31
2023-05-10T01:36:36.700Z,247.04
2023-05-10T01:37:36.706Z,247.60
2023-05-10T01:38:36.802Z,247.40
2023-05-10T01:39:36.811Z,246.02
2023-05-10T01:40:36.827Z,246.18
2023-05-10T01:41:36.864Z,245.28
2023-05-10T01:42:36.900Z,246.49
2023-05-10T01:43:36.923Z,246.88
2023-05-10T01:44:36.987Z,245.89
2023-05-10T01:45:37.001Z,245.92
2023-05-10T01:46:37.074Z,246.49
2023-05-10T01:47:37.094Z,245.76
2023-05-10T01:48:37.127Z,246.89
2023-05-10T01:49:37.152Z,246.88
2023-05-10T01:50:37.201Z,247.88
2023-05-10T01:51:37.253Z,245.09
2023-05-10T01:52:37.298Z,245.74
2023-05-10T01:53:37.321Z,246.49
2023-05-10T01:54:37.366Z,247.37
2023-05-10T01:55:37.411Z,247.20
2023-05-10T01:56:37.429Z,246.66
2023-05-10T01:57:37.461Z,246.55
2023-05-10T01:58:37.495Z,246.19
2023-05-10T01:59:37.550Z,246.21
2023-05-10T02:00:37.645Z,245.52
2023-05-10T02:01:37.684Z,245.85
2023-05-10T02:02:37.759Z,246.02
2023-05-10T02:03:37.724Z,245.03
2023-05-10T02:04:37.737Z,246.88
2023-05-10T02:05:37.767Z,247.28
2023-05-10T02:06:37.823Z,246.40
2023-05-10T02:07:37.854Z,245.14
2023-05-10T02:08:37.899Z,246.49
2023-05-10T02:09:38.013Z,245.56
2023-05-10T02:10:37.987Z,247.00
2023-05-10T02:11:38.054Z,247.36
2023-05-10T02:12:38.052Z,247.80
2023-05-10T02:13:38.079Z,245.30
2023-05-10T02:14:38.173Z,246.26
2023-05-10T02:15:38.176Z,246.05
2023-05-10T02:16:38.286Z,244.51
2023-05-10T02:17:38.327Z,246.24
2023-05-10T02:18:38.305Z,246.42
2023-05-10T02:19:38.325Z,245.11
2023-05-10T02:20:38.352Z,245.21
2023-05-10T02:21:38.426Z,245.54
2023-05-10T02:22:38.445Z,246.10
2023-05-10T02:23:38.527Z,245.94
2023-05-10T02:24:38.520Z,248.29
2023-05-10T02:25:38.577Z,246.29
2023-05-10T02:26:38.604Z,244.37
2023-05-10T02:27:38.643Z,245.81
2023-05-10T02:28:38.678Z,246.74
2023-05-10T02:29:38.768Z,246.01
2023-05-10T02:30:38.791Z,246.28
2023-05-10T02:31:38.877Z,246.72
2023-05-10T02:32:38.879Z,246.26
2023-05-10T02:33:38.938Z,247.13
2023-05-10T02:34:38.983Z,246.74
2023-05-10T02:35:38.975Z,246.82
2023-05-10T02:36:39.040Z,245.73
2023-05-10T02:37:39.064Z,247.20
2023-05-10T02:38:39.093Z,246.77
2023-05-10T02:39:39.148Z,247.91
2023-05-10T02:40:39.183Z,247.26
2023-05-10T02:41:39.226Z,246.38
2023-05-10T02:42:39.289Z,246.32
2023-05-10T02:43:39.284Z,246.67
2023-05-10T02:44:39.370Z,247.18
2023-05-10T02:45:39.407Z,246.86
2023-05-10T02:46:39.496Z,245.72
2023-05-10T02:47:39.490Z,245.95
2023-05-10T02:48:39.529Z,246.17
2023-05-10T02:49:39.585Z,246.19
2023-05-10T02:50:39.595Z,248.07
2023-05-10T02:51:39.654Z,247.07
2023-05-10T02:52:39.668Z,246.72
2023-05-10T02:53:39.735Z,248.15
2023-05-10T02:54:39.753Z,245.34
2023-05-10T02:55:39.784Z,246.69
2023-05-10T02:56:39.867Z,246.99
2023-05-10T02:57:39.865Z,245.31
2023-05-10T02:58:39.944Z,245.58
2023-05-10T02:59:39.966Z,247.12
2023-05-10T03:00:40.019Z,247.02
2023-05-10T03:01:40.105Z,245.94
2023-05-10T03:02:40.186Z,247.07
2023-05-10T03:03:40.167Z,248.03
2023-05-10T03:04:40.234Z,247.54
2023-05-10T03:05:40.239Z,247.75
2023-05-10T03:06:40.269Z,247.29
2023-05-10T03:07:40.331Z,245.90
2023-05-10T03:08:40.354Z,246.13
2023-05-10T03:09:40.361Z,245.84
2023-05-10T03:10:40.435Z,247.65
2023-05-10T03:11:40.452Z,247.28
2023-05-10T03:12:40.483Z,247.00
2023-05-10T03:13:40.560Z,244.72
2023-05-10T03:14:40.576Z,247.54
2023-05-10T03:15:40.651Z,247.58
2023-05-10T03:16:42.045Z,245.95
2023-05-10T03:17:40.694Z,246.53
2023-05-10T03:18:40.654Z,246.68
2023-05-10T03:19:40.638Z,247.03
2023-05-10T03:20:40.607Z,246.04
2023-05-10T03:21:40.626Z,248.67
2023-05-10T03:22:40.625Z,245.96
2023-05-10T03:23:40.632Z,248.88
2023-05-10T03:24:40.611Z,247.49
2023-05-10T03:25:40.611Z,246.01
2023-05-10T03:26:40.619Z,246.78
2023-05-10T03:27:40.561Z,246.65
2023-05-10T03:28:40.605Z,246.89
2023-05-10T03:29:40.580Z,246.21
2023-05-10T03:30:40.588Z,246.49
2023-05-10T03:31:40.574Z,246.27
2023-05-10T03:32:40.543Z,247.17
2023-05-10T03:33:40.553Z,246.26
2023-05-10T03:34:40.540Z,246.27
2023-05-10T03:35:40.574Z,247.21
2023-05-10T03:36:40.531Z,247.72
2023-05-10T03:37:40.540Z,245.55
2023-05-10T03:38:40.515Z,246.93
2023-05-10T03:39:40.497Z,247.53
2023-05-10T03:40:40.495Z,246.64
2023-05-10T03:41:40.507Z,244.88
2023-05-10T03:42:40.515Z,244.30
2023-05-10T03:43:40.467Z,245.45
2023-05-10T03:44:40.502Z,245.54
2023-05-10T03:45:40.493Z,245.79
2023-05-10T03:46:40.516Z,247.62
2023-05-10T03:47:40.476Z,246.36
2023-05-10T03:48:40.449Z,245.47
2023-05-10T03:49:40.408Z,244.27
2023-05-10T03:50:40.468Z,245.28
2023-05-10T03:51:40.433Z,244.79
2023-05-10T03:52:40.425Z,244.34
2023-05-10T03:53:40.435Z,245.43
2023-05-10T03:54:40.401Z,246.12
2023-05-10T03:55:40.366Z,246.60
2023-05-10T03:56:40.379Z,247.71
2023-05-10T03:57:40.368Z,246.91
2023-05-10T03:58:40.391Z,245.84
2023-05-10T03:59:40.369Z,246.59
2023-05-10T04:00:40.368Z,245.26
2023-05-10T04:01:40.419Z,245.48
2023-05-10T04:02:40.471Z,246.67
2023-05-10T04:03:40.404Z,244.69
2023-05-10T04:04:40.313Z,240.54
2023-05-10T04:05:40.359Z,235.74
2023-05-10T04:06:40.395Z,230.51
2023-05-10T04:07:40.418Z,224.46
2023-05-10T04:08:40.494Z,217.59
2023-05-10T04:09:40.499Z,210.89
2023-05-10T04:10:40.511Z,205.25
2023-05-10T04:11:40.557Z,200.64
2023-05-10T04:12:40.617Z,198.00
2023-05-10T04:13:40.627Z,198.14
2023-05-10T04:14:40.649Z,192.99
2023-05-10T04:15:40.711Z,191.10
2023-05-10T04:16:40.764Z,187.90
2023-05-10T04:17:40.847Z,186.74
2023-05-10T04:18:40.818Z,184.81
2023-05-10T04:19:40.866Z,185.40
2023-05-10T04:20:40.868Z,186.10
2023-05-10T04:21:40.922Z,186.87
2023-05-10T04:22:40.959Z,184.68
2023-05-10T04:23:41.000Z,184.28
2023-05-10T04:24:41.066Z,185.29
2023-05-10T04:25:41.122Z,183.01
2023-05-10T04:26:41.121Z,184.98
2023-05-10T04:27:41.197Z,186.20
2023-05-10T04:28:41.173Z,183.63
2023-05-10T04:29:41.239Z,182.36
2023-05-10T04:30:41.312Z,178.29
2023-05-10T04:31:41.364Z,180.01
2023-05-10T04:32:41.339Z,178.40
2023-05-10T04:33:41.397Z,181.71
2023-05-10T04:34:41.484Z,184.37
2023-05-10T04:35:41.518Z,187.61
2023-05-10T04:36:41.536Z,185.46
2023-05-10T04:37:41.670Z,184.24
2023-05-10T04:38:41.729Z,187.17
2023-05-10T04:39:42.412Z,189.93
2023-05-10T04:40:41.753Z,191.19
2023-05-10T04:41:41.752Z,192.18
2023-05-10T04:42:41.894Z,192.48
2023-05-10T04:43:41.901Z,192.50
2023-05-10T04:44:41.972Z,192.89
2023-05-10T04:45:42.005Z,194.12
2023-05-10T04:46:42.256Z,194.50
2023-05-10T04:47:42.175Z,195.77
2023-05-10T04:48:42.135Z,198.45
2023-05-10T04:49:42.213Z,200.07
2023-05-10T04:50:42.256Z,198.13
2023-05-10T04:51:42.320Z,200.55
2023-05-10T04:52:42.324Z,201.49
2023-05-10T04:53:44.662Z,202.01
2023-05-10T04:54:43.360Z,202.17
2023-05-10T04:55:42.368Z,202.33
2023-05-10T04:56:42.362Z,202.59
2023-05-10T04:57:42.346Z,204.01
2023-05-10T04:58:42.360Z,206.80
2023-05-10T04:59:42.354Z,205.52
2023-05-10T05:00:42.354Z,205.62
2023-05-10T05:01:42.387Z,207.34
2023-05-10T05:02:42.504Z,205.56
2023-05-10T05:03:42.339Z,206.60
2023-05-10T05:04:42.308Z,207.12
2023-05-10T05:05:42.341Z,206.55
2023-05-10T05:06:42.367Z,207.93
2023-05-10T05:07:42.432Z,208.42
2023-05-10T05:08:42.535Z,206.68
2023-05-10T05:09:42.545Z,207.73
2023-05-10T05:10:42.555Z,207.92
2023-05-10T05:11:42.606Z,209.05
2023-05-10T05:12:42.731Z,207.92
2023-05-10T05:13:42.692Z,209.21
2023-05-10T05:14:42.777Z,212.65
2023-05-10T05:15:42.793Z,211.21
2023-05-10T05:16:42.892Z,209.91
2023-05-10T05:17:42.947Z,211.77
2023-05-10T05:18:42.913Z,212.44
2023-05-10T05:19:42.935Z,209.60
2023-05-10T05:20:42.956Z,212.39
2023-05-10T05:21:43.030Z,212.42
2023-05-10T05:22:43.084Z,212.56
2023-05-10T05:23:43.139Z,212.29
2023-05-10T05:24:43.158Z,213.19
2023-05-10T05:25:43.208Z,214.50
2023-05-10T05:26:43.285Z,213.94
2023-05-10T05:27:43.274Z,213.63
2023-05-10T05:28:43.327Z,212.78
2023-05-10T05:29:43.364Z,212.51
2023-05-10T05:30:43.403Z,213.56
2023-05-10T05:31:43.581Z,213.32
2023-05-10T05:32:43.625Z,214.22
2023-05-10T05:33:43.531Z,215.93
2023-05-10T05:34:43.580Z,214.53
2023-05-10T05:35:43.637Z,214.47
2023-05-10T05:36:43.687Z,216.00
2023-05-10T05:37:43.799Z,205.22
2023-05-10T05:38:43.808Z,204.68
2023-05-10T05:39:43.894Z,239.06
2023-05-10T05:40:43.872Z,231.79
2023-05-10T05:41:44.088Z,211.95
2023-05-10T05:42:43.887Z,195.76
2023-05-10T05:43:43.898Z,192.27
2023-05-10T05:44:43.903Z,207.16
2023-05-10T05:45:43.957Z,206.43
2023-05-10T05:46:43.960Z,189.29
2023-05-10T05:47:43.977Z,176.30
2023-05-10T05:48:44.249Z,181.27
2023-05-10T05:49:44.097Z,207.95
2023-05-10T05:50:44.098Z,218.63
2023-05-10T05:51:44.057Z,238.56
2023-05-10T05:52:44.094Z,247.78
2023-05-10T05:53:44.128Z,253.24
2023-05-10T05:54:44.067Z,249.65
2023-05-10T05:55:44.126Z,250.02
2023-05-10T05:56:44.618Z,248.94
2023-05-10T05:57:44.201Z,247.33
2023-05-10T05:58:44.251Z,249.38
2023-05-10T05:59:44.326Z,249.26
2023-05-10T06:00:44.370Z,244.64
2023-05-10T06:01:44.669Z,240.64
2023-05-10T06:02:44.716Z,243.12
2023-05-10T06:03:44.687Z,238.10
2023-05-10T06:04:44.903Z,238.16
2023-05-10T06:05:44.624Z,247.78
2023-05-10T06:06:45.125Z,250.03
2023-05-10T06:07:44.722Z,249.82
2023-05-10T06:08:44.795Z,239.02
2023-05-10T06:09:45.098Z,236.87
2023-05-10T06:10:44.849Z,230.45
2023-05-10T06:11:45.114Z,226.62
2023-05-10T06:12:45.059Z,227.37
2023-05-10T06:13:44.919Z,230.57
2023-05-10T06:14:45.096Z,235.84
2023-05-10T06:15:45.057Z,235.05
2023-05-10T06:16:45.085Z,240.41
2023-05-10T06:17:45.124Z,232.60
2023-05-10T06:18:45.086Z,244.52
2023-05-10T06:19:45.217Z,240.68
2023-05-10T06:20:45.141Z,241.01
2023-05-10T06:21:45.199Z,240.17
2023-05-10T06:22:45.223Z,237.01
2023-05-10T06:23:45.324Z,248.78
2023-05-10T06:24:45.304Z,250.14
2023-05-10T06:25:45.316Z,250.00
2023-05-10T06:26:45.343Z,247.60
2023-05-10T06:27:48.413Z,242.59
2023-05-10T06:28:46.407Z,242.63
2023-05-10T06:29:45.372Z,242.84
2023-05-10T06:30:45.346Z,240.30
2023-05-10T06:31:45.405Z,239.81
2023-05-10T06:32:45.363Z,250.68
2023-05-10T06:33:45.366Z,248.49
2023-05-10T06:34:45.315Z,243.74
2023-05-10T06:35:45.323Z,245.82
2023-05-10T06:36:45.316Z,248.66
2023-05-10T06:37:45.414Z,236.16
2023-05-10T06:38:45.660Z,241.29
2023-05-10T06:39:45.453Z,238.11
2023-05-10T06:40:45.449Z,240.26
2023-05-10T06:41:45.454Z,241.50
2023-05-10T06:42:45.496Z,239.44
2023-05-10T06:43:45.530Z,239.99
2023-05-10T06:44:45.581Z,250.00
2023-05-10T06:45:45.598Z,248.70
2023-05-10T06:46:45.691Z,245.80
2023-05-10T06:47:45.698Z,240.84
2023-05-10T06:48:46.135Z,241.42
2023-05-10T06:49:46.132Z,243.95
2023-05-10T06:50:46.144Z,246.19
2023-05-10T06:51:46.109Z,243.03
2023-05-10T06:52:46.150Z,243.57
2023-05-10T06:53:45.859Z,244.38
2023-05-10T06:54:46.120Z,243.57
2023-05-10T06:55:46.157Z,243.02
2023-05-10T06:56:45.909Z,247.76
2023-05-10T06:57:46.113Z,248.88
2023-05-10T06:58:46.015Z,250.00
2023-05-10T06:59:45.986Z,248.38
2023-05-10T07:00:46.065Z,249.66
2023-05-10T07:01:46.072Z,247.65
2023-05-10T07:02:46.034Z,242.53
2023-05-10T07:03:46.117Z,238.43
2023-05-10T07:04:46.190Z,244.62
2023-05-10T07:05:46.171Z,249.08
2023-05-10T07:06:46.097Z,244.30
2023-05-10T07:07:46.117Z,240.84
2023-05-10T07:08:46.137Z,232.95
2023-05-10T07:09:46.156Z,238.08
2023-05-10T07:10:46.178Z,235.90
2023-05-10T07:11:46.185Z,229.06
2023-05-10T07:12:46.354Z,226.28
2023-05-10T07:13:46.260Z,228.35
2023-05-10T07:14:46.628Z,228.72
2023-05-10T07:15:46.622Z,234.00
2023-05-10T07:16:46.288Z,228.47
2023-05-10T07:17:46.550Z,228.61
2023-05-10T07:18:46.641Z,231.98
2023-05-10T07:19:46.642Z,233.67
2023-05-10T07:20:46.443Z,239.82
2023-05-10T07:21:46.344Z,236.40
2023-05-10T07:22:46.437Z,236.25
2023-05-10T07:23:46.408Z,238.32
2023-05-10T07:24:46.474Z,250.61
2023-05-10T07:25:46.460Z,247.31
2023-05-10T07:26:46.458Z,246.60
2023-05-10T07:27:46.454Z,249.17
2023-05-10T07:28:46.492Z,249.79
2023-05-10T07:29:46.473Z,245.40
2023-05-10T07:30:46.524Z,240.91
2023-05-10T07:31:46.599Z,241.48
2023-05-10T07:32:46.569Z,233.51
2023-05-10T07:33:46.604Z,226.11
2023-05-10T07:34:46.784Z,221.53
2023-05-10T07:35:46.656Z,226.99
2023-05-10T07:36:46.622Z,225.40
2023-05-10T07:37:47.150Z,215.15
2023-05-10T07:38:46.659Z,211.34
2023-05-10T07:39:47.154Z,210.51
2023-05-10T07:40:47.160Z,211.90
2023-05-10T07:41:46.770Z,211.71
2023-05-10T07:42:46.826Z,217.09
2023-05-10T07:43:46.872Z,220.99
2023-05-10T07:44:46.838Z,222.57
2023-05-10T07:45:47.175Z,230.05
2023-05-10T07:46:46.903Z,235.81
2023-05-10T07:47:46.956Z,255.45
2023-05-10T07:48:46.839Z,257.54
2023-05-10T07:49:46.862Z,254.36
2023-05-10T07:50:46.945Z,245.83
2023-05-10T07:51:46.873Z,237.71
2023-05-10T07:52:46.868Z,244.73
2023-05-10T07:53:46.912Z,241.25
2023-05-10T07:54:46.884Z,232.51
2023-05-10T07:55:46.885Z,229.66
2023-05-10T07:56:46.911Z,233.99
2023-05-10T07:57:46.908Z,232.24
2023-05-10T07:58:46.902Z,221.44
2023-05-10T07:59:46.880Z,213.92
2023-05-10T08:00:46.952Z,221.30
2023-05-10T08:01:46.903Z,233.46
2023-05-10T08:02:46.923Z,242.64
2023-05-10T08:03:46.993Z,245.04
2023-05-10T08:04:46.908Z,240.00
2023-05-10T08:05:46.882Z,236.97
2023-05-10T08:06:46.882Z,238.03
2023-05-10T08:07:47.181Z,242.28
2023-05-10T08:08:46.898Z,238.35
2023-05-10T08:09:46.936Z,233.12
2023-05-10T08:10:46.885Z,232.78
2023-05-10T08:11:47.174Z,233.88
2023-05-10T08:12:46.889Z,232.66
2023-05-10T08:13:46.920Z,227.13
2023-05-10T08:14:47.041Z,229.55
2023-05-10T08:15:47.053Z,239.36
2023-05-10T08:16:46.994Z,238.39
2023-05-10T08:17:47.005Z,233.38
2023-05-10T08:18:47.242Z,231.70
2023-05-10T08:19:47.010Z,232.51
2023-05-10T08:20:47.028Z,233.14
2023-05-10T08:21:47.024Z,233.11
2023-05-10T08:22:47.048Z,231.07
2023-05-10T08:23:47.086Z,231.68
2023-05-10T08:24:47.047Z,224.19
2023-05-10T08:25:47.085Z,217.70
2023-05-10T08:26:47.062Z,214.50
2023-05-10T08:27:47.087Z,210.09
2023-05-10T08:28:47.143Z,208.81
2023-05-10T08:29:50.330Z,206.38
2023-05-10T08:30:47.035Z,210.79
2023-05-10T08:31:47.136Z,202.16
2023-05-10T08:32:47.081Z,196.07
2023-05-10T08:33:47.168Z,196.62
2023-05-10T08:34:47.068Z,190.80
2023-05-10T08:35:47.030Z,191.62
2023-05-10T08:36:47.018Z,196.83
2023-05-10T08:37:46.978Z,190.93
2023-05-10T08:38:46.990Z,186.70
2023-05-10T08:39:47.169Z,182.15
2023-05-10T08:40:46.993Z,180.04
2023-05-10T08:41:47.005Z,173.49
2023-05-10T08:42:46.967Z,171.60
2023-05-10T08:43:46.992Z,171.47
2023-05-10T08:44:49.329Z,175.06
2023-05-10T08:45:47.190Z,175.43
2023-05-10T08:46:47.252Z,177.42
2023-05-10T08:47:47.227Z,184.32
2023-05-10T08:48:47.233Z,194.20
2023-05-10T08:49:47.143Z,203.36
2023-05-10T08:50:47.188Z,205.25
2023-05-10T08:51:47.153Z,209.12
2023-05-10T08:52:47.172Z,211.90
2023-05-10T08:53:47.195Z,211.23
2023-05-10T08:54:47.197Z,210.02
2023-05-10T08:55:47.686Z,212.45
2023-05-10T08:56:49.756Z,222.18
2023-05-10T08:57:47.689Z,230.21
2023-05-10T08:58:47.651Z,222.42
2023-05-10T08:59:47.501Z,218.06
2023-05-10T09:00:47.543Z,230.38
2023-05-10T09:01:47.505Z,227.50
2023-05-10T09:02:47.475Z,225.64
2023-05-10T09:03:47.506Z,227.07
2023-05-10T09:04:47.526Z,241.95
2023-05-10T09:05:47.490Z,249.86
2023-05-10T09:06:47.506Z,248.64
2023-05-10T09:07:47.494Z,250.00
2023-05-10T09:08:47.499Z,247.51
2023-05-10T09:09:47.511Z,250.00
2023-05-10T09:10:47.502Z,245.89
2023-05-10T09:11:47.515Z,239.89
2023-05-10T09:12:47.564Z,246.11
2023-05-10T09:13:47.597Z,246.15
2023-05-10T09:14:47.592Z,242.33
2023-05-10T09:15:47.616Z,240.92
2023-05-10T09:16:47.690Z,239.48
2023-05-10T09:17:47.733Z,239.92
2023-05-10T09:18:47.720Z,235.25
2023-05-10T09:19:47.738Z,229.88
2023-05-10T09:20:47.794Z,228.17
2023-05-10T09:21:48.206Z,225.83
2023-05-10T09:22:47.930Z,238.22
2023-05-10T09:23:48.725Z,242.92
2023-05-10T09:24:47.928Z,254.06
2023-05-10T09:25:47.954Z,249.26
2023-05-10T09:26:48.218Z,247.43
2023-05-10T09:27:47.983Z,243.63
2023-05-10T09:28:48.157Z,245.41
2023-05-10T09:29:48.053Z,250.00
2023-05-10T09:30:48.158Z,246.92
2023-05-10T09:31:48.192Z,235.13
2023-05-10T09:32:48.159Z,209.37
2023-05-10T09:33:48.194Z,190.17
2023-05-10T09:34:48.193Z,175.67
2023-05-10T09:35:48.222Z,166.23
2023-05-10T09:36:48.225Z,157.27
2023-05-10T09:37:48.318Z,149.60
2023-05-10T09:38:48.738Z,150.50
2023-05-10T09:39:48.338Z,149.20
2023-05-10T09:40:48.382Z,149.49
2023-05-10T09:41:48.454Z,153.00
2023-05-10T09:42:48.448Z,152.90
2023-05-10T09:43:48.745Z,153.51
2023-05-10T09:44:48.526Z,155.80
2023-05-10T09:45:48.598Z,161.61
2023-05-10T09:46:48.584Z,164.24
2023-05-10T09:47:48.686Z,162.29
2023-05-10T09:48:49.602Z,162.67
2023-05-10T09:49:48.590Z,168.27
2023-05-10T09:50:48.749Z,172.27
2023-05-10T09:51:48.684Z,168.97
2023-05-10T09:52:48.729Z,166.71
2023-05-10T09:53:48.910Z,163.10
2023-05-10T09:54:49.217Z,159.78
2023-05-10T09:55:48.640Z,160.40
2023-05-10T09:56:48.687Z,169.44
2023-05-10T09:57:48.683Z,177.74
2023-05-10T09:58:48.627Z,179.64
2023-05-10T09:59:48.657Z,186.23
2023-05-10T10:00:48.651Z,188.35
2023-05-10T10:01:48.731Z,188.11
2023-05-10T10:02:49.298Z,189.00
2023-05-10T10:03:48.767Z,189.72
2023-05-10T10:04:48.764Z,188.91
2023-05-10T10:05:48.830Z,185.93
2023-05-10T10:06:48.820Z,189.03
2023-05-10T10:07:48.877Z,187.38
2023-05-10T10:08:48.946Z,189.21
2023-05-10T10:09:48.885Z,194.08
2023-05-10T10:10:48.938Z,205.74
2023-05-10T10:11:48.979Z,202.67
2023-05-10T10:12:49.026Z,193.10
2023-05-10T10:13:49.060Z,193.79
2023-05-10T10:14:49.110Z,196.31
2023-05-10T10:15:49.201Z,197.85
2023-05-10T10:17:05.060Z,197.09
2023-05-10T10:17:50.281Z,197.00
2023-05-10T10:18:49.252Z,194.65
2023-05-10T10:19:49.245Z,197.56
2023-05-10T10:20:49.185Z,195.29
2023-05-10T10:21:49.151Z,188.99
2023-05-10T10:22:49.194Z,182.75
2023-05-10T10:23:49.145Z,177.54
2023-05-10T10:24:49.148Z,182.58
2023-05-10T10:25:49.173Z,188.26
2023-05-10T10:26:49.247Z,190.63
2023-05-10T10:27:49.168Z,176.83
2023-05-10T10:28:49.255Z,171.27
2023-05-10T10:29:49.235Z,161.23
2023-05-10T10:30:49.261Z,154.79
2023-05-10T10:31:49.416Z,146.63
2023-05-10T10:32:49.228Z,145.86
2023-05-10T10:33:49.241Z,153.27
2023-05-10T10:34:49.263Z,168.87
2023-05-10T10:35:49.226Z,171.31
2023-05-10T10:36:49.231Z,176.56
2023-05-10T10:37:49.256Z,177.16
2023-05-10T10:38:49.269Z,180.95
2023-05-10T10:39:49.322Z,185.33
2023-05-10T10:40:49.310Z,184.31
2023-05-10T10:41:49.367Z,179.43
2023-05-10T10:42:49.438Z,179.42
2023-05-10T10:43:49.487Z,185.07
2023-05-10T10:44:49.552Z,192.60
2023-05-10T10:45:49.610Z,193.21
2023-05-10T10:46:49.725Z,202.53
2023-05-10T10:47:49.759Z,201.55
2023-05-10T10:48:49.782Z,199.81
2023-05-10T10:49:49.935Z,194.72
2023-05-10T10:50:49.944Z,196.60
2023-05-10T10:51:50.013Z,191.90
2023-05-10T10:52:50.043Z,190.48
2023-05-10T10:53:50.132Z,194.87
2023-05-10T10:54:50.188Z,190.29
2023-05-10T10:55:50.239Z,189.90
2023-05-10T10:56:50.278Z,188.95
2023-05-10T10:57:50.358Z,190.25
2023-05-10T10:58:50.408Z,191.01
2023-05-10T10:59:50.479Z,191.79
2023-05-10T11:00:50.623Z,185.87
2023-05-10T11:01:50.600Z,184.33
2023-05-10T11:02:50.696Z,182.00
2023-05-10T11:03:50.766Z,188.76
2023-05-10T11:04:50.891Z,183.89
2023-05-10T11:05:50.842Z,184.85
2023-05-10T11:06:50.939Z,182.53
2023-05-10T11:07:50.949Z,183.59
2023-05-10T11:08:51.050Z,174.75
2023-05-10T11:09:51.128Z,177.94
2023-05-10T11:10:51.105Z,184.01
2023-05-10T11:11:51.178Z,188.19
2023-05-10T11:12:51.214Z,187.90
2023-05-10T11:13:51.807Z,173.16
2023-05-10T11:14:51.391Z,175.61
2023-05-10T11:15:51.402Z,177.32
2023-05-10T11:16:51.493Z,177.54
2023-05-10T11:17:51.479Z,162.21
2023-05-10T11:18:51.640Z,153.69
2023-05-10T11:19:51.640Z,134.89
2023-05-10T11:20:51.687Z,129.49
2023-05-10T11:21:51.750Z,125.19
2023-05-10T11:22:51.766Z,119.69
2023-05-10T11:23:51.764Z,113.34
2023-05-10T11:24:51.766Z,106.98
2023-05-10T11:25:51.727Z,100.36
2023-05-10T11:26:51.795Z,92.99
2023-05-10T11:27:51.772Z,97.49
2023-05-10T11:28:51.785Z,91.65
2023-05-10T11:29:51.749Z,90.04
2023-05-10T11:30:51.863Z,83.57
2023-05-10T11:31:51.819Z,80.88
2023-05-10T11:32:51.893Z,72.86
2023-05-10T11:33:51.865Z,64.95
2023-05-10T11:34:51.928Z,60.80
2023-05-10T11:35:51.948Z,65.58
2023-05-10T11:36:51.945Z,65.69
2023-05-10T11:37:52.048Z,60.80
2023-05-10T11:38:52.020Z,61.43
2023-05-10T11:39:52.027Z,59.74
2023-05-10T11:40:52.137Z,55.70
2023-05-10T11:41:52.126Z,55.42
2023-05-10T11:42:52.205Z,53.55
2023-05-10T11:43:52.185Z,48.35
2023-05-10T11:44:52.248Z,45.01
2023-05-10T11:45:52.287Z,38.88
2023-05-10T11:46:52.384Z,38.56
2023-05-10T11:47:52.401Z,39.55
2023-05-10T11:48:52.390Z,38.70
2023-05-10T11:49:52.449Z,31.08
2023-05-10T11:50:52.439Z,31.43
2023-05-10T11:51:52.519Z,26.72
2023-05-10T11:52:52.529Z,29.84
2023-05-10T11:53:52.579Z,36.70
2023-05-10T11:54:52.587Z,32.48
2023-05-10T11:55:52.643Z,32.96
2023-05-10T11:56:52.670Z,36.42
2023-05-10T11:57:52.675Z,41.22
2023-05-10T11:58:52.745Z,38.43
2023-05-10T11:59:52.828Z,35.75
2023-05-10T12:00:52.850Z,36.33
2023-05-10T12:01:52.841Z,39.43
2023-05-10T12:02:52.943Z,40.00
2023-05-10T12:03:53.160Z,31.80
2023-05-10T12:04:53.075Z,33.19
2023-05-10T12:05:53.035Z,46.13
2023-05-10T12:06:53.081Z,59.71
2023-05-10T12:07:53.155Z,58.76
2023-05-10T12:08:53.147Z,64.35
2023-05-10T12:09:53.185Z,75.18
2023-05-10T12:10:53.224Z,82.78
2023-05-10T12:11:53.246Z,88.45
2023-05-10T12:12:53.284Z,104.55
2023-05-10T12:13:53.285Z,112.99
2023-05-10T12:14:53.351Z,124.97
2023-05-10T12:15:53.376Z,139.98
2023-05-10T12:16:53.643Z,147.45
2023-05-10T12:17:53.433Z,152.40
2023-05-10T12:18:53.440Z,154.17
2023-05-10T12:19:53.408Z,152.40
2023-05-10T12:20:53.419Z,156.65
2023-05-10T12:21:53.409Z,170.05
2023-05-10T12:22:53.458Z,181.68
2023-05-10T12:23:53.470Z,181.74
2023-05-10T12:24:53.445Z,174.32
2023-05-10T12:25:53.512Z,177.91
2023-05-10T12:26:53.429Z,181.70
2023-05-10T12:27:53.434Z,184.96
2023-05-10T12:28:53.454Z,192.10
2023-05-10T12:29:53.409Z,191.64